IE-0001 weather

Britta's House Airstrip
County Tipperary, Ireland

Public forecast

Using degrees Celsius for public forecast. Weather courtesy of forecast.io.

METAR (pilot weather report)

Closest report is Shannon Airport, 19.4 nm (35.9 km) WNW. Retrieved 2019/06/24 08:30 UTC (16 minutes ago):

EINN 240830Z 10005KT 070V130 9999 FEW006 BKN050 16/15 Q1015 NOSIG

TAF (pilot weather forecast)

Closest forecast is Shannon Airport, 19.4 nm (35.9 km) WNW. Retrieved 2019/06/24 06:27 UTC (2 hours ago):

TAF EINN 240500Z 2406/2506 VRB03KT 9999 FEW010 BKN020 PROB40 TEMPO 2406/2410 BKN008 TEMPO 2411/2422 -SHRA SCT020CB BECMG 2414/2416 33010KT PROB40 TEMPO 2414/2420 4000 SHRA PROB40 TEMPO 2422/2506 2500 BR BKN005